Weather at João Paulo II Airport

Public forecast

Using degrees Celsius for public forecast. Weather courtesy of forecast.io.

Current aviation weather report (METAR) for João Paulo II Airport

Retrieved 2020/11/27 22:30 UTC (0 seconds ago):

LPPD 272230Z 35017KT 9999 FEW016 SCT030 14/07 Q1021

Aviation forecast (TAF) for João Paulo II Airport

Retrieved 2020/11/27 18:18 UTC (4 hours ago):

TAF LPPD 271700Z 2718/2818 35015KT 9999 SCT020 TEMPO 2718/2818 35020G30KT PROB30 TEMPO 2718/2812 8000 SHRA BKN015